Time;durP1;ratioP1;P1;durP2;ratioP2;P2;SDS_P1;SDS_P2;PMS_P1;PMS_P2;Temp;Humidity;BMP_temperature;BMP_pressure;BME280_temperature;BME280_humidity;BME280_pressure;Samples;Min_cycle;Max_cycle;Signal;HPM_P1;HPM_P2
2022/11/17 08:52:09;;;;;;;2.65;0.82;;;;;;;10.04;81.91;94567.66;2084428;28;20575;-65
2022/11/17 08:53:15;;;;;;;10.63;0.90;;;;;;;9.98;81.66;94571.56;2078510;28;20199;-65
2022/11/17 08:54:17;;;;;;;2.33;0.90;;;;;;;9.99;81.63;94564.56;2072421;28;20201;-65
2022/11/17 08:55:18;;;;;;;3.00;0.90;;;;;;;10.12;81.54;94579.16;2073078;28;20198;-63
2022/11/17 08:56:20;;;;;;;3.05;0.90;;;;;;;10.24;81.22;94564.34;2072804;28;20715;-66
2022/11/17 08:57:22;;;;;;;1.65;0.80;;;;;;;10.78;80.00;94575.91;2080163;28;20393;-65
2022/11/17 08:58:26;;;;;;;3.35;0.90;;;;;;;11.00;78.48;94571.59;2077643;28;21180;-64
2022/11/17 08:59:28;;;;;;;4.53;1.00;;;;;;;11.06;77.37;94578.13;2071751;28;20401;-64
2022/11/17 09:00:29;;;;;;;1.60;0.93;;;;;;;10.81;78.46;94584.44;2071161;28;20196;-65
2022/11/17 09:01:31;;;;;;;2.45;0.90;;;;;;;10.69;78.22;94576.63;2073844;28;20192;-66
2022/11/17 09:02:32;;;;;;;3.78;0.80;;;;;;;10.57;79.08;94586.22;2072611;28;20245;-65
2022/11/17 09:03:37;;;;;;;3.00;0.70;;;;;;;10.59;78.94;94589.56;2071004;28;20405;-65
2022/11/17 09:04:39;;;;;;;3.55;0.95;;;;;;;10.62;79.27;94588.47;2071758;28;20203;-66
2022/11/17 09:05:43;;;;;;;3.50;0.85;;;;;;;10.67;78.99;94572.47;2072656;28;20203;-66
2022/11/17 09:06:45;;;;;;;3.63;0.98;;;;;;;10.67;78.55;94596.78;2074041;28;20303;-66
2022/11/17 09:07:46;;;;;;;4.00;1.05;;;;;;;10.54;78.57;94593.44;2073218;28;20209;-66
2022/11/17 09:08:54;;;;;;;6.70;1.13;;;;;;;10.30;79.58;94597.81;2071778;28;20261;-65
2022/11/17 09:09:55;;;;;;;3.40;0.90;;;;;;;10.21;79.83;94598.50;2071767;28;20205;-65
2022/11/17 09:10:57;;;;;;;3.53;0.90;;;;;;;10.11;80.68;94610.59;2072643;28;20693;-64
2022/11/17 09:11:59;;;;;;;4.70;0.90;;;;;;;10.02;81.19;94608.66;2070955;28;20212;-66
2022/11/17 09:13:00;;;;;;;7.45;1.10;;;;;;;10.04;80.38;94599.75;2070000;28;20239;-66
2022/11/17 09:14:02;;;;;;;3.42;1.63;;;;;;;10.05;81.44;94585.78;2072618;28;20216;-66
2022/11/17 09:15:05;;;;;;;7.05;1.20;;;;;;;10.15;80.49;94593.75;2073430;28;20562;-66
2022/11/17 09:16:09;;;;;;;5.78;1.00;;;;;;;10.29;80.21;94596.13;2072928;28;20200;-66
2022/11/17 09:17:11;;;;;;;7.25;1.00;;;;;;;10.20;79.79;94609.88;2071954;28;20664;-65
2022/11/17 09:18:12;;;;;;;4.15;0.88;;;;;;;10.20;79.67;94603.84;2070940;28;20207;-66
2022/11/17 09:19:14;;;;;;;1.20;0.75;;;;;;;10.08;79.94;94606.44;2071501;28;20237;-66
2022/11/17 09:20:18;;;;;;;7.95;1.10;;;;;;;10.02;80.87;94603.44;2072169;28;20206;-66
2022/11/17 09:21:19;;;;;;;3.97;0.90;;;;;;;10.00;80.69;94611.38;2073091;28;20203;-65
2022/11/17 09:22:20;;;;;;;2.88;0.88;;;;;;;9.94;81.29;94601.41;2072815;28;20694;-66
2022/11/17 09:23:22;;;;;;;3.53;1.00;;;;;;;9.96;81.08;94610.75;2072131;28;20224;-65
2022/11/17 09:24:27;;;;;;;5.68;1.67;;;;;;;9.96;80.95;94608.16;2069822;28;20223;-66
2022/11/17 09:25:29;;;;;;;4.88;1.00;;;;;;;10.03;80.61;94607.72;2070655;28;20204;-66
2022/11/17 09:26:31;;;;;;;3.90;1.42;;;;;;;10.07;81.15;94599.56;2072951;28;20822;-66
2022/11/17 09:27:32;;;;;;;4.03;1.67;;;;;;;10.06;80.57;94617.94;2070784;28;20244;-65
2022/11/17 09:56:35;;;;;;;2.92;1.00;;;;;;;10.68;77.63;94631.53;2100580;27;20561;-63
2022/11/17 09:57:44;;;;;;;4.68;0.82;;;;;;;10.68;77.05;94621.09;2099214;28;20201;-62
2022/11/17 09:58:52;;;;;;;2.78;1.00;;;;;;;10.61;77.37;94631.19;2085318;28;20241;-64
2022/11/17 10:00:23;;;;;;;3.20;1.05;;;;;;;10.29;77.23;94642.28;2082458;28;20213;-64
2022/11/17 10:01:27;;;;;;;4.80;1.00;;;;;;;10.22;78.50;94631.47;2079763;28;20202;-65
2022/11/17 10:02:29;;;;;;;4.95;1.00;;;;;;;10.22;78.23;94628.88;2082676;28;20203;-66
2022/11/17 10:03:33;;;;;;;11.90;1.30;;;;;;;10.29;77.88;94629.22;2076447;28;20233;-65
2022/11/17 10:04:44;;;;;;;4.50;1.10;;;;;;;10.24;78.42;94631.34;2077015;28;20646;-65
2022/11/17 10:05:51;;;;;;;6.82;1.20;;;;;;;10.19;78.08;94629.09;2072810;28;20201;-65
2022/11/17 10:06:52;;;;;;;13.00;1.60;;;;;;;10.24;77.87;94624.34;2074724;28;20674;-65
2022/11/17 10:07:59;;;;;;;9.98;2.05;;;;;;;10.27;77.51;94633.72;2070867;28;20622;-66
2022/11/17 10:09:12;;;;;;;5.93;1.27;;;;;;;10.40;76.87;94628.47;2072679;28;20220;-65
2022/11/17 10:10:19;;;;;;;4.97;0.85;;;;;;;10.42;76.22;94632.63;2072801;28;20191;-64
2022/11/17 10:11:30;;;;;;;6.45;1.17;;;;;;;10.39;76.81;94618.97;2074217;28;20202;-65
2022/11/17 10:12:41;;;;;;;8.05;1.52;;;;;;;10.34;76.98;94628.88;2075135;28;20194;-66
2022/11/17 10:13:42;;;;;;;5.65;1.17;;;;;;;10.36;77.08;94635.69;2073950;28;20223;-66
2022/11/17 10:14:47;;;;;;;5.35;1.20;;;;;;;10.44;76.53;94635.91;2074807;28;20203;-65
2022/11/17 10:15:53;;;;;;;6.38;1.30;;;;;;;10.49;75.61;94627.75;2076052;28;20517;-68
2022/11/17 10:16:58;;;;;;;6.38;1.75;;;;;;;10.46;75.78;94633.19;2076510;28;20613;-65
2022/11/17 10:17:59;;;;;;;7.57;2.40;;;;;;;10.49;75.78;94643.41;2076730;28;20198;-66
2022/11/17 10:19:22;;;;;;;3.80;0.98;;;;;;;10.39;76.08;94643.25;2072889;28;20199;-66
2022/11/17 10:20:23;;;;;;;4.13;1.25;;;;;;;10.13;76.27;94625.16;2074261;28;20200;-65
2022/11/17 10:21:29;;;;;;;5.72;1.17;;;;;;;10.19;77.12;94642.13;2070780;28;20218;-65
2022/11/17 10:22:35;;;;;;;5.53;1.13;;;;;;;10.05;77.18;94631.91;2071367;28;20620;-64
2022/11/17 10:23:42;;;;;;;5.40;1.17;;;;;;;10.16;77.62;94651.94;2074479;28;20221;-65
2022/11/17 10:24:50;;;;;;;11.93;1.30;;;;;;;10.29;77.20;94647.50;2073590;28;20765;-64
2022/11/17 10:25:57;;;;;;;7.40;1.35;;;;;;;10.89;74.39;94644.72;2072874;28;20548;-65
2022/11/17 10:27:01;;;;;;;6.20;1.20;;;;;;;10.79;74.92;94639.38;2072487;28;20203;-65
2022/11/17 10:28:07;;;;;;;11.38;1.45;;;;;;;10.75;75.17;94640.56;2070519;28;20212;-64
2022/11/17 10:29:12;;;;;;;7.28;1.40;;;;;;;11.02;74.90;94644.59;2071768;28;20195;-66
2022/11/17 10:30:22;;;;;;;7.47;1.83;;;;;;;11.60;71.85;94621.69;2073365;28;20255;-63
2022/11/17 10:31:24;;;;;;;13.15;1.33;;;;;;;12.09;70.66;94647.41;2070674;28;20199;-63
2022/11/17 10:32:35;;;;;;;3.03;1.00;;;;;;;12.55;68.83;94655.84;2070761;28;20204;-63
2022/11/17 10:33:39;;;;;;;3.38;1.02;;;;;;;12.75;67.66;94659.41;2075570;28;20227;-62
2022/11/17 10:34:41;;;;;;;6.90;1.30;;;;;;;12.76;67.65;94639.25;2074991;28;20554;-63
2022/11/17 10:35:55;;;;;;;10.25;1.65;;;;;;;11.73;70.70;94658.13;2073650;28;20204;-62
2022/11/17 10:37:03;;;;;;;5.05;1.27;;;;;;;11.31;72.02;94665.81;2074862;28;20200;-63
2022/11/17 10:38:07;;;;;;;8.00;1.40;;;;;;;12.33;69.69;94655.03;2073478;28;20205;-64
2022/11/17 10:39:33;;;;;;;5.78;1.70;;;;;;;11.18;72.60;94652.88;2074398;28;20203;-63
2022/11/17 10:40:37;;;;;;;9.93;2.00;;;;;;;10.98;73.79;94654.44;2073252;28;20199;-63
2022/11/17 10:41:44;;;;;;;7.50;1.25;;;;;;;10.82;73.75;94644.38;2074411;28;20823;-63
2022/11/17 10:42:58;;;;;;;5.20;1.48;;;;;;;10.78;73.72;94653.41;2070595;28;20262;-62
2022/11/17 10:44:04;;;;;;;14.38;1.50;;;;;;;10.73;73.86;94650.31;2072161;28;20610;-63
2022/11/17 10:45:16;;;;;;;8.57;1.92;;;;;;;10.91;73.85;94651.47;2076073;28;20207;-63
2022/11/17 10:46:17;;;;;;;6.65;1.40;;;;;;;12.51;68.98;94655.25;2072905;28;20203;-63
2022/11/17 10:47:30;;;;;;;6.32;1.45;;;;;;;13.29;66.78;94654.75;2073033;28;20207;-63
2022/11/17 10:48:37;;;;;;;9.38;1.77;;;;;;;14.04;63.37;94644.69;2070492;28;20229;-63
2022/11/17 10:49:38;;;;;;;7.32;1.65;;;;;;;14.28;62.26;94640.78;2072606;28;20212;-63
2022/11/17 10:50:53;;;;;;;6.03;1.52;;;;;;;14.48;61.15;94646.84;2071758;28;20204;-63
2022/11/17 10:52:04;;;;;;;6.90;1.40;;;;;;;14.00;62.21;94652.97;2072492;28;20223;-62
2022/11/17 10:53:41;;;;;;;5.38;1.30;;;;;;;14.33;62.08;94656.94;2074071;28;20200;-64
2022/11/17 10:54:48;;;;;;;8.95;1.33;;;;;;;13.94;61.39;94664.00;2074382;28;20689;-61
2022/11/17 10:55:56;;;;;;;9.02;1.50;;;;;;;13.23;64.34;94647.47;2073098;28;20409;-63
2022/11/17 10:56:59;;;;;;;4.20;1.33;;;;;;;13.74;63.64;94645.66;2072204;28;20209;-63
2022/11/17 10:58:25;;;;;;;8.93;1.42;;;;;;;14.11;62.34;94633.66;2072762;28;20237;-63
2022/11/17 10:59:31;;;;;;;5.80;1.25;;;;;;;15.08;60.68;94643.09;2074308;28;20696;-63
2022/11/17 11:00:36;;;;;;;8.65;1.70;;;;;;;14.55;59.80;94649.75;2073736;28;20204;-61
2022/11/17 11:01:48;;;;;;;5.20;1.17;;;;;;;14.61;60.45;94624.69;2074902;28;20196;-63
2022/11/17 11:03:03;;;;;;;11.07;1.10;;;;;;;14.58;60.63;94636.31;2073889;28;20249;-62
2022/11/17 11:04:24;;;;;;;10.27;1.40;;;;;;;15.16;59.50;94642.34;2078286;28;20221;-63
2022/11/17 11:05:26;;;;;;;5.93;1.25;;;;;;;15.17;58.69;94630.88;2080668;28;20192;-63
2022/11/17 11:06:30;;;;;;;11.15;1.50;;;;;;;14.97;58.93;94624.88;2081163;28;20204;-62
2022/11/17 11:07:32;;;;;;;8.63;1.80;;;;;;;15.48;59.23;94639.28;2079283;28;20288;-63
2022/11/17 11:08:54;;;;;;;6.00;1.45;;;;;;;15.61;57.64;94624.97;2076170;28;20603;-65
2022/11/17 11:10:05;;;;;;;5.03;1.40;;;;;;;15.83;57.25;94632.47;2076359;28;20200;-64
2022/11/17 11:11:17;;;;;;;8.40;1.73;;;;;;;15.16;58.28;94645.00;2078877;28;20676;-61
2022/11/17 11:12:40;;;;;;;10.88;2.30;;;;;;;14.04;61.26;94652.56;2074768;28;20201;-62
2022/11/17 11:13:55;;;;;;;4.95;1.30;;;;;;;13.45;63.39;94637.75;2077137;28;20254;-62
2022/11/17 11:14:58;;;;;;;9.43;1.65;;;;;;;14.20;62.48;94630.19;2080097;28;20207;-63
2022/11/17 11:16:00;;;;;;;8.95;2.33;;;;;;;14.65;61.74;94620.84;2077183;28;20605;-64
2022/11/17 11:17:10;;;;;;;9.75;1.40;;;;;;;14.99;59.57;94631.66;2075131;28;20221;-62
2022/11/17 11:18:18;;;;;;;9.48;2.15;;;;;;;14.62;61.44;94636.88;2076655;28;20201;-63
2022/11/17 11:19:20;;;;;;;10.80;1.70;;;;;;;14.53;61.11;94620.97;2078383;28;20211;-62
2022/11/17 11:20:41;;;;;;;8.77;1.30;;;;;;;14.61;60.75;94638.66;2077722;28;20243;-61
2022/11/17 11:21:51;;;;;;;5.18;1.20;;;;;;;14.68;60.11;94647.66;2076724;28;20200;-63
2022/11/17 11:23:15;;;;;;;6.72;1.08;;;;;;;15.00;59.72;94643.00;2078004;28;20200;-65
2022/11/17 11:24:34;;;;;;;3.40;1.25;;;;;;;14.28;60.63;94645.22;2068053;28;20248;-61
2022/11/17 11:25:50;;;;;;;8.75;1.05;;;;;;;13.84;61.44;94638.59;2064914;28;20198;-61
2022/11/17 11:27:26;;;;;;;6.20;1.45;;;;;;;14.57;60.95;94646.97;2067248;28;20201;-62
2022/11/17 11:28:46;;;;;;;8.30;1.35;;;;;;;14.38;61.25;94646.03;2067135;28;20214;-61
2022/11/17 11:30:03;;;;;;;8.23;1.42;;;;;;;14.21;61.57;94631.84;2068580;28;20202;-62
2022/11/17 11:31:19;;;;;;;3.67;1.10;;;;;;;13.69;61.98;94638.19;2068418;28;20239;-63
2022/11/17 11:32:35;;;;;;;3.20;1.23;;;;;;;13.88;61.80;94632.13;2070112;28;20208;-60
2022/11/17 11:33:47;;;;;;;9.30;3.75;;;;;;;13.60;62.70;94636.38;2069571;28;20247;-60
2022/11/17 11:35:19;;;;;;;6.75;2.38;;;;;;;13.64;62.64;94644.81;2067980;28;20200;-60
2022/11/17 11:36:49;;;;;;;6.97;1.67;;;;;;;13.96;62.37;94634.03;2068785;28;20547;-62
2022/11/17 11:38:08;;;;;;;7.63;1.15;;;;;;;14.06;62.25;94646.34;2066220;28;20198;-62
2022/11/17 11:39:31;;;;;;;3.22;0.90;;;;;;;14.51;61.29;94653.59;2066605;28;20305;-62
2022/11/17 11:40:43;;;;;;;4.88;0.80;;;;;;;13.49;63.56;94649.63;2070811;28;20208;-61
2022/11/17 11:41:59;;;;;;;3.28;1.08;;;;;;;13.79;63.12;94638.19;2068292;28;20209;-62
2022/11/17 11:43:53;;;;;;;3.75;1.38;;;;;;;14.39;61.95;94637.19;2067250;28;20201;-63
2022/11/17 11:45:19;;;;;;;4.10;0.95;;;;;;;14.86;61.07;94625.91;2067861;28;20232;-63
2022/11/17 11:46:42;;;;;;;3.85;1.40;;;;;;;15.60;59.59;94624.13;2067828;28;20202;-63
2022/11/17 11:48:09;;;;;;;5.93;1.10;;;;;;;14.70;60.81;94650.13;2067537;28;20216;-62
2022/11/17 11:49:42;;;;;;;2.63;1.00;;;;;;;14.43;61.13;94632.50;2072640;28;20219;-62
2022/11/17 11:51:02;;;;;;;1.65;0.70;;;;;;;14.62;61.11;94626.38;2075224;28;20212;-63
2022/11/17 11:52:13;;;;;;;5.72;0.90;;;;;;;14.18;61.61;94619.81;2076000;28;20252;-63
2022/11/17 11:53:23;;;;;;;2.78;0.70;;;;;;;14.57;61.36;94634.66;2074753;28;20308;-63
2022/11/17 11:54:43;;;;;;;4.22;0.93;;;;;;;14.86;60.44;94629.34;2074933;28;20312;-61
2022/11/17 11:56:05;;;;;;;3.50;1.20;;;;;;;14.92;60.20;94627.09;2076225;28;20543;-63
2022/11/17 11:57:13;;;;;;;7.95;0.80;;;;;;;14.30;61.32;94635.41;2074627;28;20571;-61
2022/11/17 11:58:21;;;;;;;3.72;0.90;;;;;;;14.18;62.03;94643.44;2075764;28;20224;-61
2022/11/17 11:59:38;;;;;;;5.13;1.10;;;;;;;13.95;62.32;94644.69;2077907;28;20682;-62
2022/11/17 12:00:44;;;;;;;2.40;0.80;;;;;;;14.25;62.04;94646.34;2078301;28;20432;-60
2022/11/17 12:02:00;;;;;;;3.08;0.98;;;;;;;14.12;62.33;94637.91;2079690;28;20254;-61
2022/11/17 12:03:11;;;;;;;6.30;1.00;;;;;;;14.00;61.85;94647.72;2073846;28;20200;-59
2022/11/17 12:04:37;;;;;;;2.30;0.80;;;;;;;13.45;62.96;94641.19;2075257;28;20234;-59
2022/11/17 12:06:38;;;;;;;5.50;1.15;;;;;;;13.59;62.90;94634.72;2075217;28;20200;-61
2022/11/17 12:07:43;;;;;;;3.83;0.90;;;;;;;14.07;61.93;94640.97;2076124;28;20209;-61
2022/11/17 12:09:09;;;;;;;6.03;1.20;;;;;;;13.81;62.49;94632.81;2076278;28;20219;-61
2022/11/17 12:10:29;;;;;;;9.38;0.95;;;;;;;13.95;61.94;94626.31;2070560;28;20207;-60
2022/11/17 12:12:52;;;;;;;5.38;0.85;;;;;;;14.20;60.50;94594.25;2072828;28;20275;-61
2022/11/17 12:13:56;;;;;;;11.70;0.82;;;;;;;13.82;61.67;94611.69;2073980;28;20226;-60
2022/11/17 12:15:18;;;;;;;6.47;1.20;;;;;;;13.96;61.19;94615.69;2076506;28;20196;-60
2022/11/17 12:16:28;;;;;;;2.88;0.90;;;;;;;14.08;61.56;94632.13;2076494;28;20219;-61
2022/11/17 12:17:29;;;;;;;3.58;1.10;;;;;;;14.42;61.40;94621.16;2076801;28;20215;-61
2022/11/17 12:18:32;;;;;;;6.40;1.23;;;;;;;14.64;59.73;94612.16;2072093;28;20224;-60
2022/11/17 12:19:43;;;;;;;4.70;1.33;;;;;;;14.37;60.58;94621.59;2072881;28;20196;-62
2022/11/17 12:20:54;;;;;;;7.68;1.33;;;;;;;14.40;60.49;94615.22;2075214;28;20691;-61
2022/11/17 12:21:56;;;;;;;6.18;1.30;;;;;;;14.81;59.95;94622.88;2076703;28;20204;-61
2022/11/17 12:23:29;;;;;;;7.55;1.40;;;;;;;14.69;60.16;94617.81;2074863;28;20207;-61
2022/11/17 12:24:39;;;;;;;3.28;1.00;;;;;;;14.33;59.94;94614.94;2075708;28;20281;-60
2022/11/17 12:25:49;;;;;;;3.97;0.90;;;;;;;14.34;60.46;94603.47;2074306;28;20231;-61
2022/11/17 12:27:32;;;;;;;4.63;1.08;;;;;;;14.24;59.40;94628.09;2074497;28;20239;-61
2022/11/17 12:28:39;;;;;;;5.57;1.25;;;;;;;14.28;60.00;94637.34;2075714;28;20229;-61
2022/11/17 12:29:45;;;;;;;7.25;1.30;;;;;;;14.45;59.61;94627.91;2078284;28;20200;-63
2022/11/17 12:30:50;;;;;;;11.02;3.92;;;;;;;14.92;58.58;94627.97;2077800;28;20216;-63
2022/11/17 12:31:54;;;;;;;15.55;3.92;;;;;;;13.71;60.05;94635.41;2076797;28;20201;-59
2022/11/17 12:32:57;;;;;;;8.38;1.95;;;;;;;13.51;61.62;94622.28;2077147;28;20208;-61
2022/11/17 12:33:58;;;;;;;6.70;1.63;;;;;;;13.55;61.59;94628.91;2077183;28;20251;-61
2022/11/17 12:35:32;;;;;;;7.70;1.67;;;;;;;13.77;61.01;94619.13;2076856;28;20568;-61
2022/11/17 12:36:34;;;;;;;8.45;1.65;;;;;;;13.78;60.76;94627.84;2075447;28;20212;-61
2022/11/17 12:37:36;;;;;;;7.43;1.83;;;;;;;13.97;59.85;94627.84;2075184;28;20209;-61
2022/11/17 12:38:38;;;;;;;9.10;1.30;;;;;;;13.94;60.09;94624.66;2076373;28;20584;-60
2022/11/17 12:39:55;;;;;;;12.15;1.20;;;;;;;14.35;59.87;94635.81;2075510;28;20224;-61
2022/11/17 12:40:56;;;;;;;8.60;1.75;;;;;;;14.23;60.16;94632.50;2075730;28;20543;-60
2022/11/17 12:42:05;;;;;;;4.55;1.13;;;;;;;14.26;60.34;94628.78;2073592;28;20778;-61
2022/11/17 12:43:22;;;;;;;5.32;1.38;;;;;;;14.66;59.51;94627.75;2075275;28;20211;-61
2022/11/17 12:44:32;;;;;;;5.10;1.17;;;;;;;14.45;59.61;94630.53;2074384;28;20755;-60
2022/11/17 12:46:02;;;;;;;5.03;1.30;;;;;;;14.36;59.90;94611.22;2076652;28;20603;-61
2022/11/17 12:47:20;;;;;;;6.28;1.50;;;;;;;14.77;58.60;94619.72;2075773;28;20253;-61
2022/11/17 12:48:23;;;;;;;8.20;1.30;;;;;;;14.69;58.41;94609.91;2074177;28;20263;-61
2022/11/17 12:50:01;;;;;;;8.27;1.50;;;;;;;14.60;58.76;94621.25;2076559;28;20292;-61
2022/11/17 12:51:10;;;;;;;5.72;1.70;;;;;;;14.56;59.11;94621.69;2075431;28;20208;-60
2022/11/17 12:52:20;;;;;;;8.77;1.63;;;;;;;14.87;58.58;94624.94;2076719;28;20205;-61
2022/11/17 12:53:32;;;;;;;14.27;1.45;;;;;;;15.10;57.94;94628.00;2075072;28;20534;-61
2022/11/17 12:54:46;;;;;;;8.98;1.30;;;;;;;14.83;57.77;94613.88;2073977;28;20247;-60
2022/11/17 12:56:14;;;;;;;8.43;1.63;;;;;;;15.23;57.74;94621.59;2076101;28;20205;-61
2022/11/17 12:57:32;;;;;;;5.95;1.35;;;;;;;14.78;57.82;94628.41;2075409;28;20201;-61
2022/11/17 12:59:01;;;;;;;5.72;1.10;;;;;;;15.02;57.46;94623.47;2075244;28;20222;-61
2022/11/17 13:00:11;;;;;;;5.18;1.25;;;;;;;14.52;58.31;94634.25;2075630;28;20201;-61
2022/11/17 13:01:29;;;;;;;6.25;1.30;;;;;;;14.27;58.27;94610.28;2075921;28;20212;-60
2022/11/17 13:02:57;;;;;;;8.15;2.00;;;;;;;14.52;58.26;94615.88;2075355;28;20204;-62
2022/11/17 13:04:09;;;;;;;5.40;1.67;;;;;;;14.40;58.17;94617.84;2074832;28;20612;-60
2022/11/17 13:05:18;;;;;;;11.98;1.60;;;;;;;14.51;57.95;94625.56;2078390;28;20212;-61
2022/11/17 13:06:19;;;;;;;12.00;2.10;;;;;;;14.51;58.64;94622.94;2076599;28;20203;-61
2022/11/17 13:07:36;;;;;;;6.30;1.88;;;;;;;14.40;58.15;94617.00;2075606;28;20904;-60
2022/11/17 13:08:37;;;;;;;6.30;1.67;;;;;;;14.37;58.63;94626.84;2073978;28;20216;-60
2022/11/17 13:09:39;;;;;;;10.23;1.40;;;;;;;14.45;58.86;94612.16;2077890;28;20201;-60
2022/11/17 13:10:40;;;;;;;9.02;1.52;;;;;;;14.12;59.33;94609.88;2075023;28;20201;-61
2022/11/17 13:11:57;;;;;;;7.30;2.15;;;;;;;14.19;59.26;94625.88;2076583;28;20205;-59
2022/11/17 13:13:31;;;;;;;5.18;1.20;;;;;;;14.02;59.95;94627.44;2075134;28;20207;-60
2022/11/17 13:15:19;;;;;;;8.07;1.85;;;;;;;14.09;60.22;94623.25;2062270;28;20332;-61
2022/11/17 13:16:21;;;;;;;5.65;1.42;;;;;;;14.31;59.21;94624.78;2051419;28;20245;-61
2022/11/17 13:17:28;;;;;;;7.25;1.58;;;;;;;14.51;59.17;94616.84;2072941;28;20211;-61
2022/11/17 13:18:35;;;;;;;6.97;1.55;;;;;;;14.63;59.09;94628.84;2074298;28;20228;-61
2022/11/17 13:19:37;;;;;;;12.23;4.63;;;;;;;14.42;59.79;94636.09;2075327;28;20208;-63
2022/11/17 13:20:39;;;;;;;11.88;5.07;;;;;;;14.38;59.89;94630.28;2076799;28;20527;-61
2022/11/17 13:21:44;;;;;;;19.60;5.10;;;;;;;14.07;59.63;94637.50;2075834;28;20680;-60
2022/11/17 13:23:03;;;;;;;11.52;2.42;;;;;;;14.19;59.90;94625.88;2074291;28;20597;-61
2022/11/17 13:24:27;;;;;;;9.68;2.03;;;;;;;14.31;60.11;94626.56;2075862;28;20286;-61
2022/11/17 13:25:33;;;;;;;6.45;2.00;;;;;;;13.83;60.54;94615.16;2076115;28;20220;-60
2022/11/17 13:26:37;;;;;;;7.40;1.98;;;;;;;14.15;60.02;94609.59;2075379;28;20196;-61
2022/11/17 13:27:44;;;;;;;10.80;1.40;;;;;;;14.57;59.59;94633.84;2076118;28;20224;-61
2022/11/17 13:29:21;;;;;;;10.45;2.20;;;;;;;14.56;59.62;94630.38;2074448;28;20700;-61
2022/11/17 13:30:26;;;;;;;8.23;1.85;;;;;;;14.45;59.49;94628.75;2075469;28;20197;-60
2022/11/17 13:31:28;;;;;;;6.13;1.60;;;;;;;14.44;59.60;94629.72;2075078;28;20874;-60
2022/11/17 13:32:29;;;;;;;8.70;1.80;;;;;;;14.70;59.39;94613.38;2072166;28;20198;-61
2022/11/17 13:33:32;;;;;;;9.82;2.25;;;;;;;15.09;58.54;94620.28;2075177;28;20232;-63
2022/11/17 13:34:55;;;;;;;6.47;1.30;;;;;;;14.42;59.03;94631.66;2076539;28;20204;-61
2022/11/17 13:36:18;;;;;;;8.52;1.95;;;;;;;14.43;59.87;94633.31;2075717;28;20197;-61
2022/11/17 13:37:25;;;;;;;10.27;2.05;;;;;;;14.65;59.53;94626.09;2079397;28;20201;-62
2022/11/17 13:38:27;;;;;;;14.70;1.88;;;;;;;14.65;59.06;94620.84;2078010;28;20254;-62
2022/11/17 13:39:28;;;;;;;11.73;1.50;;;;;;;14.53;59.17;94628.03;2077436;28;20196;-61
2022/11/17 13:40:32;;;;;;;8.48;1.95;;;;;;;14.20;59.81;94623.13;2076373;28;20676;-61
2022/11/17 13:41:38;;;;;;;13.93;1.95;;;;;;;14.01;60.53;94639.72;2074646;28;20217;-61
2022/11/17 13:42:40;;;;;;;8.68;1.50;;;;;;;13.99;60.60;94628.53;2075984;28;20197;-61
2022/11/17 13:43:44;;;;;;;5.63;1.35;;;;;;;13.90;60.71;94647.72;2074986;28;20231;-61
2022/11/17 13:44:47;;;;;;;8.00;1.80;;;;;;;14.20;60.46;94641.50;2072159;28;20648;-62
2022/11/17 13:45:50;;;;;;;8.38;1.92;;;;;;;14.09;60.21;94627.69;2072182;28;20540;-60
2022/11/17 13:46:51;;;;;;;13.73;2.17;;;;;;;13.81;60.69;94631.00;2075763;28;20639;-61
2022/11/17 13:47:53;;;;;;;9.23;1.77;;;;;;;13.90;60.84;94641.66;2076271;28;20217;-62
2022/11/17 13:48:56;;;;;;;12.60;1.80;;;;;;;14.13;60.66;94640.41;2074795;28;20273;-61
2022/11/17 13:50:22;;;;;;;10.10;2.13;;;;;;;14.34;60.18;94642.84;2077199;28;20200;-61
2022/11/17 13:51:37;;;;;;;8.45;2.30;;;;;;;14.41;59.61;94642.28;2074207;28;20777;-61
2022/11/17 13:52:40;;;;;;;9.25;1.42;;;;;;;13.98;60.86;94642.63;2072105;28;20640;-62
2022/11/17 13:53:50;;;;;;;9.55;1.83;;;;;;;13.74;61.14;94648.28;2074768;28;20224;-61
2022/11/17 13:54:51;;;;;;;10.40;1.85;;;;;;;13.34;62.70;94644.69;2072117;28;20252;-61
2022/11/17 13:55:53;;;;;;;6.70;1.40;;;;;;;13.03;63.00;94638.69;2073333;28;20238;-61
2022/11/17 13:57:06;;;;;;;11.63;1.90;;;;;;;12.84;64.00;94632.41;2074692;28;20241;-61
2022/11/17 13:58:39;;;;;;;9.50;2.30;;;;;;;12.88;64.42;94631.19;2074948;28;20208;-61
2022/11/17 13:59:43;;;;;;;10.18;2.35;;;;;;;12.64;64.53;94628.88;2064333;28;20200;-62
2022/11/17 14:00:53;;;;;;;13.50;1.70;;;;;;;12.76;64.08;94637.50;2075122;28;20209;-62
2022/11/17 14:02:19;;;;;;;12.13;1.98;;;;;;;12.58;64.66;94640.72;2074474;28;20262;-62
2022/11/17 14:03:30;;;;;;;17.15;2.42;;;;;;;12.90;64.11;94623.22;2076529;28;20718;-62
2022/11/17 14:04:31;;;;;;;11.10;2.47;;;;;;;13.03;63.70;94636.91;2075275;28;20207;-61
2022/11/17 14:05:33;;;;;;;11.77;1.83;;;;;;;13.06;63.65;94628.78;2072094;28;20203;-62
2022/11/17 14:06:51;;;;;;;10.88;2.38;;;;;;;13.25;63.10;94631.59;2074453;28;20586;-62
2022/11/17 14:07:55;;;;;;;8.93;1.50;;;;;;;13.20;62.99;94640.69;2075425;28;20201;-62
2022/11/17 14:09:03;;;;;;;10.45;2.00;;;;;;;12.91;63.50;94640.56;2075435;28;20223;-61
2022/11/17 14:10:30;;;;;;;14.02;2.15;;;;;;;12.51;64.98;94636.94;2075787;28;20208;-61
2022/11/17 14:11:32;;;;;;;8.80;1.70;;;;;;;12.55;64.96;94634.91;2075492;28;20197;-61
2022/11/17 14:12:33;;;;;;;4.47;1.25;;;;;;;12.62;65.49;94649.13;2074437;28;20246;-62
2022/11/17 14:13:41;;;;;;;13.60;2.35;;;;;;;12.72;65.18;94651.78;2074154;28;20228;-61
2022/11/17 14:14:44;;;;;;;15.88;2.50;;;;;;;12.67;65.24;94633.88;2072052;28;20200;-62
2022/11/17 14:15:51;;;;;;;13.00;2.63;;;;;;;12.66;65.69;94652.28;2073868;28;20200;-63
2022/11/17 14:16:54;;;;;;;17.05;2.50;;;;;;;12.52;65.82;94648.22;2073948;28;20201;-62
2022/11/17 14:18:00;;;;;;;7.10;2.05;;;;;;;12.06;66.58;94648.50;2076145;28;20205;-62
2022/11/17 14:19:04;;;;;;;16.85;2.67;;;;;;;11.93;67.40;94650.41;2074438;28;20217;-63
2022/11/17 14:20:29;;;;;;;13.02;2.10;;;;;;;11.65;68.50;94644.81;2071947;28;20201;-62
2022/11/17 14:21:31;;;;;;;10.85;2.25;;;;;;;11.54;68.68;94639.63;2074854;28;20617;-61
2022/11/17 14:22:33;;;;;;;28.40;10.13;;;;;;;11.44;69.17;94634.31;2072081;28;20548;-62
2022/11/17 14:23:34;;;;;;;12.90;3.20;;;;;;;11.37;69.24;94648.81;2072745;28;20680;-63
2022/11/17 14:24:36;;;;;;;18.05;5.13;;;;;;;11.34;69.88;94651.66;2075920;28;20231;-63
2022/11/17 14:25:40;;;;;;;16.92;3.00;;;;;;;11.32;69.96;94648.38;2074788;28;20223;-63
2022/11/17 14:26:43;;;;;;;19.13;3.13;;;;;;;11.17;70.33;94648.59;2075517;28;20206;-63
2022/11/17 14:27:45;;;;;;;10.07;2.63;;;;;;;11.11;70.69;94649.13;2075623;28;20287;-63
2022/11/17 14:28:54;;;;;;;15.05;2.97;;;;;;;11.03;71.33;94641.03;2075097;28;20228;-63
2022/11/17 14:29:55;;;;;;;11.52;2.13;;;;;;;11.07;71.02;94648.50;2074883;28;20243;-63
2022/11/17 14:30:57;;;;;;;14.43;2.10;;;;;;;11.01;71.29;94653.38;2075469;28;20204;-63
2022/11/17 14:31:59;;;;;;;9.35;2.05;;;;;;;10.99;71.48;94642.22;2075295;28;20216;-63
2022/11/17 14:33:00;;;;;;;16.08;2.75;;;;;;;10.97;71.45;94651.94;2072086;28;20204;-63
2022/11/17 14:34:10;;;;;;;20.33;2.38;;;;;;;10.98;71.74;94651.81;2075439;28;20325;-63
2022/11/17 14:35:14;;;;;;;26.40;3.58;;;;;;;10.96;71.89;94653.75;2072016;28;20240;-63
2022/11/17 14:36:16;;;;;;;24.98;2.60;;;;;;;10.81;72.22;94642.72;2074366;28;20200;-63
2022/11/17 14:37:21;;;;;;;20.08;2.60;;;;;;;10.88;71.98;94650.88;2071566;28;20212;-63
2022/11/17 14:38:22;;;;;;;17.10;2.03;;;;;;;10.77;71.92;94629.06;2071352;28;20236;-63
2022/11/17 14:39:24;;;;;;;12.93;3.30;;;;;;;10.77;72.18;94641.28;2077720;28;20204;-63
2022/11/17 14:40:25;;;;;;;16.63;2.50;;;;;;;10.67;73.00;94635.13;2075909;28;20200;-63
2022/11/17 14:41:26;;;;;;;9.18;2.45;;;;;;;10.74;72.79;94634.53;2075780;28;20201;-63
2022/11/17 14:42:28;;;;;;;12.18;2.72;;;;;;;10.74;72.72;94644.97;2075505;28;20196;-63
2022/11/17 14:43:36;;;;;;;9.90;2.50;;;;;;;10.70;73.17;94642.69;2076986;28;20224;-63
2022/11/17 14:44:38;;;;;;;17.98;2.67;;;;;;;10.58;72.78;94631.44;2075376;28;20197;-63
2022/11/17 14:45:39;;;;;;;14.75;3.15;;;;;;;10.61;72.66;94644.25;2075904;28;20820;-62
2022/11/17 14:46:41;;;;;;;12.13;2.75;;;;;;;10.56;73.00;94623.72;2074982;28;20699;-62
2022/11/17 14:47:47;;;;;;;10.75;2.60;;;;;;;10.64;72.96;94640.56;2075740;28;20209;-62
2022/11/17 14:48:49;;;;;;;12.45;3.35;;;;;;;10.63;73.75;94642.34;2076784;28;20211;-63